Time;durP1;ratioP1;P1;durP2;ratioP2;P2;SDS_P1;SDS_P2;PMS_P1;PMS_P2;Temp;Humidity;BMP_temperature;BMP_pressure;BME280_temperature;BME280_humidity;BME280_pressure;Samples;Min_cycle;Max_cycle;Signal;HPM_P1;HPM_P2
2023/03/15 00:02:26;;;;;;;82.32;17.25;;;4.00;1.00;;;;;;5040378;28;20239;-85
2023/03/15 00:05:00;;;;;;;75.80;18.60;;;4.00;1.00;;;;;;5041434;28;20181;-85
2023/03/15 00:07:43;;;;;;;78.43;19.52;;;3.90;1.00;;;;;;5041853;28;20199;-85
2023/03/15 00:11:14;;;;;;;81.50;24.40;;;3.80;36.00;;;;;;5041806;28;20246;-85
2023/03/15 00:17:09;;;;;;;75.07;20.08;;;3.90;88.70;;;;;;4959073;28;20659;-85
2023/03/15 00:19:51;;;;;;;;;;;;;;;;;;;;;
2023/03/15 00:22:28;;;;;;;75.35;20.02;;;4.00;58.20;;;;;;4926511;28;20227;-84
2023/03/15 00:25:06;;;;;;;80.57;25.15;;;4.00;63.90;;;;;;5027493;28;20200;-85
2023/03/15 00:28:15;;;;;;;81.32;23.45;;;3.90;97.50;;;;;;5040165;28;20180;-85
2023/03/15 00:31:04;;;;;;;82.97;22.92;;;3.90;99.90;;;;;;5040572;28;20173;-85
2023/03/15 00:33:53;;;;;;;75.07;19.73;;;3.90;99.90;;;;;;5040502;28;20768;-84
2023/03/15 00:36:37;;;;;;;73.47;22.42;;;3.90;99.90;;;;;;5056076;28;20203;-84
2023/03/15 00:39:23;;;;;;;73.75;21.75;;;3.90;99.90;;;;;;5040405;28;20168;-85
2023/03/15 00:41:58;;;;;;;78.80;25.63;;;3.90;99.90;;;;;;5040446;28;20176;-84
2023/03/15 00:44:55;;;;;;;;;;;;;;;;;;;;;
2023/03/15 00:48:01;;;;;;;77.25;22.00;;;4.10;99.90;;;;;;5057811;28;20272;-85
2023/03/15 00:50:39;;;;;;;79.32;23.48;;;4.10;99.90;;;;;;4995718;28;20612;-84
2023/03/15 00:53:26;;;;;;;;;;;;;;;;;;;;;
2023/03/15 00:56:12;;;;;;;;;;;;;;;;;;;;;
2023/03/15 00:58:51;;;;;;;82.00;25.48;;;3.90;99.90;;;;;;5058242;28;20257;-83
2023/03/15 01:01:39;;;;;;;;;;;;;;;;;;;;;
2023/03/15 01:04:44;;;;;;;78.38;23.08;;;4.00;1.00;;;;;;5057863;28;20189;-83
2023/03/15 01:07:17;;;;;;;80.28;24.70;;;4.00;1.00;;;;;;5038155;28;20195;-84
2023/03/15 01:09:49;;;;;;;82.28;28.08;;;4.10;99.90;;;;;;5040318;28;20592;-84
2023/03/15 01:12:18;;;;;;;81.07;26.73;;;4.10;99.90;;;;;;5037027;28;20268;-85
2023/03/15 01:14:49;;;;;;;81.18;25.27;;;4.20;99.90;;;;;;5057285;28;20173;-84
2023/03/15 01:17:18;;;;;;;75.85;26.63;;;4.30;99.90;;;;;;5041013;28;20200;-84
2023/03/15 01:19:54;;;;;;;82.68;22.20;;;4.40;99.90;;;;;;5059870;28;20164;-84
2023/03/15 01:23:14;;;;;;;75.50;21.08;;;4.50;99.90;;;;;;5042378;28;20192;-84
2023/03/15 01:25:27;;;;;;;77.13;21.27;;;4.50;99.90;;;;;;5050568;28;20645;-85
2023/03/15 01:28:27;;;;;;;76.57;27.52;;;4.50;99.90;;;;;;5042207;28;20202;-85
2023/03/15 01:30:56;;;;;;;79.03;31.65;;;4.40;99.90;;;;;;5041816;28;20608;-85
2023/03/15 01:33:22;;;;;;;78.15;24.50;;;4.40;99.90;;;;;;5059411;28;20192;-85
2023/03/15 01:35:56;;;;;;;74.65;22.05;;;4.30;1.00;;;;;;5059488;28;20172;-86
2023/03/15 01:38:29;;;;;;;74.18;21.23;;;4.20;1.00;;;;;;5058277;28;20159;-87
2023/03/15 01:40:57;;;;;;;73.57;18.52;;;4.10;99.90;;;;;;5040019;28;20687;-86
2023/03/15 01:43:25;;;;;;;79.57;17.30;;;4.00;99.90;;;;;;5057455;28;20624;-87
2023/03/15 01:46:23;;;;;;;79.60;15.38;;;3.90;99.90;;;;;;5057222;28;20191;-87
2023/03/15 01:49:06;;;;;;;70.38;10.60;;;3.90;1.00;;;;;;5039508;28;20172;-87
2023/03/15 01:51:45;;;;;;;70.07;8.32;;;3.80;99.90;;;;;;5038997;28;20168;-87
2023/03/15 01:54:38;;;;;;;70.85;9.10;;;3.80;1.00;;;;;;5040191;28;20230;-86
2023/03/15 01:57:24;;;;;;;70.43;9.60;;;3.80;1.00;;;;;;5046474;28;20206;-87
2023/03/15 02:00:10;;;;;;;69.90;10.32;;;3.80;99.90;;;;;;5057595;28;20231;-87
2023/03/15 02:02:48;;;;;;;74.40;10.80;;;3.80;99.90;;;;;;5057134;28;20188;-87
2023/03/15 02:05:22;;;;;;;78.35;13.68;;;3.80;1.00;;;;;;5057979;28;20227;-86
2023/03/15 02:07:49;;;;;;;74.00;12.20;;;3.80;1.00;;;;;;5040446;28;20233;-86
2023/03/15 02:10:26;;;;;;;77.53;14.30;;;3.90;1.00;;;;;;5039296;28;20214;-87
2023/03/15 02:12:58;;;;;;;80.10;14.43;;;3.90;38.40;;;;;;5057214;28;20190;-87
2023/03/15 02:15:24;;;;;;;75.32;12.25;;;3.90;99.90;;;;;;5057424;28;20160;-87
2023/03/15 02:17:56;;;;;;;72.27;11.40;;;3.80;99.90;;;;;;5040144;28;20263;-87
2023/03/15 02:20:46;;;;;;;76.43;11.00;;;3.80;99.90;;;;;;5058146;28;20157;-87
2023/03/15 02:23:21;;;;;;;78.13;12.50;;;3.70;8.10;;;;;;5039297;28;20196;-87
2023/03/15 02:26:08;;;;;;;75.72;10.85;;;3.70;1.00;;;;;;5040544;28;20186;-87
2023/03/15 02:28:34;;;;;;;81.18;12.00;;;3.50;99.90;;;;;;5057987;28;20156;-87
2023/03/15 02:31:00;;;;;;;73.43;10.57;;;3.50;99.90;;;;;;5058152;28;20682;-87
2023/03/15 02:33:31;;;;;;;76.97;13.00;;;3.40;99.90;;;;;;5057270;28;20422;-87
2023/03/15 02:36:30;;;;;;;71.05;10.88;;;3.30;99.90;;;;;;5058731;28;20145;-88
2023/03/15 02:38:56;;;;;;;72.85;11.05;;;3.20;99.90;;;;;;5037636;28;20165;-87
2023/03/15 02:41:36;;;;;;;72.45;11.85;;;3.10;99.90;;;;;;5035989;28;20524;-88
2023/03/15 02:44:10;;;;;;;75.53;10.95;;;3.10;99.90;;;;;;5035081;28;20238;-89
2023/03/15 02:46:37;;;;;;;71.18;10.45;;;2.70;99.90;;;;;;5053406;28;20149;-89
2023/03/15 02:49:06;;;;;;;74.72;11.55;;;2.60;99.90;;;;;;5035294;28;20200;-89
2023/03/15 02:51:33;;;;;;;69.93;10.70;;;2.50;99.90;;;;;;5035651;28;20509;-89
2023/03/15 02:53:58;;;;;;;72.07;11.38;;;2.50;99.90;;;;;;5053044;28;20188;-88
2023/03/15 02:56:24;;;;;;;71.90;11.50;;;2.40;99.90;;;;;;5035085;28;20183;-88
2023/03/15 02:58:50;;;;;;;73.53;10.47;;;2.50;99.90;;;;;;5034991;28;20195;-88
2023/03/15 03:01:18;;;;;;;73.05;10.38;;;2.40;99.90;;;;;;5036372;28;20411;-88
2023/03/15 03:03:45;;;;;;;74.53;12.90;;;2.40;99.90;;;;;;5034697;28;20204;-88
2023/03/15 03:06:12;;;;;;;71.00;11.23;;;2.40;99.90;;;;;;5035700;28;20519;-88
2023/03/15 03:08:38;;;;;;;72.18;11.82;;;2.30;99.90;;;;;;5055829;28;20569;-88
2023/03/15 03:11:04;;;;;;;71.27;11.20;;;2.30;99.90;;;;;;5038967;28;20221;-88
2023/03/15 03:13:33;;;;;;;70.28;11.00;;;2.30;99.90;;;;;;5038488;28;20438;-88
2023/03/15 03:15:58;;;;;;;71.32;11.75;;;2.30;99.90;;;;;;5056510;28;20172;-87
2023/03/15 03:18:28;;;;;;;69.53;10.70;;;2.40;99.90;;;;;;5056442;28;20574;-88
2023/03/15 03:20:58;;;;;;;72.93;11.05;;;2.40;99.90;;;;;;5056658;28;20161;-88
2023/03/15 03:23:25;;;;;;;70.20;9.50;;;2.40;99.90;;;;;;5039012;28;20606;-88
2023/03/15 03:25:55;;;;;;;73.22;10.40;;;2.40;99.90;;;;;;5056773;28;20244;-87
2023/03/15 03:28:23;;;;;;;71.38;11.32;;;2.50;99.90;;;;;;5056739;28;20149;-88
2023/03/15 03:30:49;;;;;;;69.28;11.05;;;2.50;99.90;;;;;;5039060;28;20161;-87
2023/03/15 03:33:15;;;;;;;68.35;10.00;;;2.60;99.90;;;;;;5040242;28;20192;-87
2023/03/15 03:35:41;;;;;;;67.60;9.70;;;2.70;99.90;;;;;;5040367;28;20539;-88
2023/03/15 03:38:07;;;;;;;70.77;11.27;;;2.70;99.90;;;;;;5060395;28;20410;-87
2023/03/15 03:40:33;;;;;;;69.60;10.05;;;2.80;99.90;;;;;;5061130;28;20239;-89
2023/03/15 03:42:59;;;;;;;68.80;8.90;;;2.70;99.90;;;;;;5044304;28;20654;-87
2023/03/15 03:45:25;;;;;;;69.47;9.17;;;2.80;99.90;;;;;;5063059;28;20399;-88
2023/03/15 03:47:50;;;;;;;69.03;9.13;;;2.80;99.90;;;;;;5044913;28;20513;-89
2023/03/15 03:50:16;;;;;;;71.27;9.30;;;3.00;99.90;;;;;;5061461;28;20161;-88
2023/03/15 03:52:42;;;;;;;69.77;10.10;;;2.90;99.90;;;;;;5043827;28;20189;-88
2023/03/15 03:55:12;;;;;;;70.47;8.60;;;3.10;99.90;;;;;;5059380;28;20165;-87
2023/03/15 03:57:38;;;;;;;68.13;7.95;;;3.10;99.90;;;;;;5059198;28;20169;-86
2023/03/15 04:00:05;;;;;;;66.88;8.68;;;2.90;99.90;;;;;;5059134;28;20235;-87
2023/03/15 04:02:30;;;;;;;68.00;9.38;;;2.90;99.90;;;;;;5040893;28;20199;-88
2023/03/15 04:04:56;;;;;;;68.03;8.83;;;2.90;99.90;;;;;;5059404;28;20513;-87
2023/03/15 04:07:22;;;;;;;68.37;9.00;;;2.90;99.90;;;;;;5041088;28;20165;-87
2023/03/15 04:09:48;;;;;;;72.63;9.90;;;2.90;99.90;;;;;;5041195;28;20403;-87
2023/03/15 04:12:13;;;;;;;67.53;8.63;;;3.00;99.90;;;;;;5058856;28;20644;-88
2023/03/15 04:14:39;;;;;;;67.93;9.17;;;2.90;99.90;;;;;;5060325;28;20172;-88
2023/03/15 04:17:05;;;;;;;69.87;8.43;;;2.90;99.90;;;;;;5060303;28;20164;-88
2023/03/15 04:19:30;;;;;;;67.40;9.50;;;2.90;99.90;;;;;;5040943;28;20259;-88
2023/03/15 04:21:56;;;;;;;69.90;7.73;;;3.00;99.90;;;;;;5059768;28;20246;-88
2023/03/15 04:24:22;;;;;;;68.17;9.10;;;3.00;99.90;;;;;;5059889;28;20192;-88
2023/03/15 04:26:47;;;;;;;69.07;8.47;;;3.10;99.90;;;;;;5121626;23;20248;-88
2023/03/15 04:29:14;;;;;;;69.40;9.10;;;3.20;99.90;;;;;;5059101;28;20172;-88
2023/03/15 04:31:41;;;;;;;68.30;8.25;;;3.10;99.90;;;;;;5041264;28;20176;-88
2023/03/15 04:34:08;;;;;;;68.35;9.00;;;3.10;99.90;;;;;;5041211;28;20203;-88
2023/03/15 04:36:34;;;;;;;67.95;9.23;;;3.00;99.90;;;;;;5059517;28;20217;-88
2023/03/15 04:39:06;;;;;;;68.30;9.90;;;3.00;99.90;;;;;;5059825;28;20160;-88
2023/03/15 04:41:36;;;;;;;75.93;9.13;;;3.10;99.90;;;;;;5059550;28;20380;-88
2023/03/15 04:44:02;;;;;;;69.75;9.70;;;3.20;99.90;;;;;;5060872;28;20208;-89
2023/03/15 04:46:30;;;;;;;72.57;9.90;;;3.20;99.90;;;;;;5059539;28;20160;-89
2023/03/15 04:48:56;;;;;;;67.32;9.75;;;3.20;99.90;;;;;;5038693;28;20644;-88
2023/03/15 04:51:22;;;;;;;69.63;9.93;;;3.10;99.90;;;;;;5037578;28;20179;-88
2023/03/15 04:53:48;;;;;;;68.97;9.13;;;3.10;99.90;;;;;;5037104;28;20958;-88
2023/03/15 04:56:13;;;;;;;68.37;9.80;;;3.10;99.90;;;;;;5037176;28;20180;-88
2023/03/15 04:58:39;;;;;;;69.50;11.30;;;3.10;99.90;;;;;;5038318;28;20176;-87
2023/03/15 05:01:04;;;;;;;66.87;8.47;;;3.10;99.90;;;;;;5055668;28;20251;-88
2023/03/15 05:03:30;;;;;;;68.03;9.90;;;3.00;99.90;;;;;;5038205;28;20207;-88
2023/03/15 05:05:56;;;;;;;69.30;8.77;;;3.10;99.90;;;;;;5038552;28;20647;-88
2023/03/15 05:08:21;;;;;;;68.67;8.20;;;3.00;99.90;;;;;;5058185;28;20639;-87
2023/03/15 05:10:47;;;;;;;68.43;9.10;;;3.00;99.90;;;;;;5041491;28;20226;-88
2023/03/15 05:13:13;;;;;;;69.77;10.20;;;3.00;99.90;;;;;;5059361;28;20195;-87
2023/03/15 05:15:38;;;;;;;67.77;8.90;;;2.90;99.90;;;;;;5042354;28;20628;-88
2023/03/15 05:18:04;;;;;;;69.27;8.90;;;2.90;99.90;;;;;;5042201;28;20176;-87
2023/03/15 05:20:30;;;;;;;68.07;9.53;;;2.90;99.90;;;;;;5059981;28;20169;-88
2023/03/15 05:22:57;;;;;;;69.75;10.60;;;2.90;99.90;;;;;;5041459;28;20223;-87
2023/03/15 05:25:23;;;;;;;70.28;9.90;;;3.00;99.90;;;;;;5043075;28;20234;-89
2023/03/15 05:27:49;;;;;;;70.27;10.47;;;3.00;99.90;;;;;;5043319;28;20153;-88
2023/03/15 05:30:15;;;;;;;73.97;11.87;;;3.00;99.90;;;;;;5059654;28;20399;-89
2023/03/15 05:32:43;;;;;;;72.18;12.93;;;3.00;99.90;;;;;;5043038;28;20219;-89
2023/03/15 05:35:10;;;;;;;73.97;11.65;;;3.00;99.90;;;;;;5043186;28;20164;-87
2023/03/15 05:37:36;;;;;;;73.07;12.35;;;3.00;99.90;;;;;;5042797;28;20168;-88
2023/03/15 05:40:06;;;;;;;72.57;12.70;;;3.00;99.90;;;;;;5042871;28;20157;-88
2023/03/15 05:42:32;;;;;;;73.43;12.35;;;3.00;99.90;;;;;;5042608;28;20426;-87
2023/03/15 05:44:58;;;;;;;71.72;12.50;;;2.90;99.90;;;;;;5043158;28;20624;-87
2023/03/15 05:47:24;;;;;;;72.60;12.50;;;2.90;99.90;;;;;;5060127;28;20164;-88
2023/03/15 05:49:51;;;;;;;74.30;13.53;;;2.90;99.90;;;;;;5041798;28;20176;-87
2023/03/15 05:52:16;;;;;;;71.82;12.38;;;2.90;99.90;;;;;;5041746;28;20187;-88
2023/03/15 05:54:42;;;;;;;72.27;12.57;;;2.80;99.90;;;;;;5060353;28;20172;-88
2023/03/15 05:57:08;;;;;;;72.23;12.27;;;2.90;99.90;;;;;;5041505;28;20218;-88
2023/03/15 05:59:34;;;;;;;73.38;12.07;;;2.90;99.90;;;;;;5059639;28;20849;-88
2023/03/15 06:02:00;;;;;;;70.30;11.03;;;2.80;99.90;;;;;;5059643;28;20227;-88
2023/03/15 06:04:26;;;;;;;70.30;11.20;;;2.80;99.90;;;;;;5041843;28;20189;-88
2023/03/15 06:06:52;;;;;;;70.20;10.63;;;2.90;99.90;;;;;;5059821;28;20157;-88
2023/03/15 06:09:18;;;;;;;72.07;10.55;;;2.90;99.90;;;;;;5059339;28;20160;-88
2023/03/15 06:11:44;;;;;;;69.93;11.18;;;2.90;99.90;;;;;;5058329;28;20160;-88
2023/03/15 06:14:10;;;;;;;69.57;10.50;;;3.00;99.90;;;;;;5041654;28;20191;-88
2023/03/15 06:16:35;;;;;;;70.67;11.90;;;3.00;99.90;;;;;;5058997;28;20401;-88
2023/03/15 06:19:02;;;;;;;70.17;11.17;;;2.90;99.90;;;;;;5041169;28;20407;-88
2023/03/15 06:21:27;;;;;;;70.45;11.50;;;3.00;99.90;;;;;;5041423;28;20525;-87
2023/03/15 06:23:53;;;;;;;72.67;10.63;;;3.00;99.90;;;;;;5041200;28;20242;-88
2023/03/15 06:26:19;;;;;;;70.60;10.83;;;3.10;99.90;;;;;;5058589;28;20306;-88
2023/03/15 06:28:45;;;;;;;71.30;11.98;;;3.10;99.90;;;;;;5059086;28;20153;-87
2023/03/15 06:31:12;;;;;;;70.60;10.00;;;3.00;99.90;;;;;;5058638;28;20294;-87
2023/03/15 06:33:38;;;;;;;71.13;10.73;;;3.10;99.90;;;;;;5040505;28;20192;-87
2023/03/15 06:36:05;;;;;;;69.20;10.23;;;3.10;99.90;;;;;;5057957;28;20160;-87
2023/03/15 06:38:31;;;;;;;70.90;10.65;;;3.10;99.90;;;;;;5040148;28;20461;-87
2023/03/15 06:40:59;;;;;;;72.97;12.75;;;3.10;99.90;;;;;;5057522;28;20252;-87
2023/03/15 06:43:26;;;;;;;73.00;11.20;;;3.10;99.90;;;;;;5060509;28;20180;-87
2023/03/15 06:45:52;;;;;;;75.05;12.45;;;3.20;99.90;;;;;;5061753;28;20221;-87
2023/03/15 06:48:18;;;;;;;76.20;12.20;;;3.20;99.90;;;;;;5062575;28;20222;-86
2023/03/15 06:50:44;;;;;;;73.47;12.40;;;3.20;99.90;;;;;;5063003;28;20188;-86
2023/03/15 06:53:09;;;;;;;70.40;11.37;;;3.20;99.90;;;;;;5062266;28;20446;-86
2023/03/15 06:55:35;;;;;;;73.50;12.10;;;3.30;99.90;;;;;;5044808;28;20168;-87
2023/03/15 06:58:01;;;;;;;74.57;12.40;;;3.30;99.90;;;;;;5063112;28;20669;-86
2023/03/15 07:00:27;;;;;;;73.57;13.97;;;3.30;99.90;;;;;;5044930;28;20161;-86
2023/03/15 07:02:52;;;;;;;73.97;13.27;;;3.30;99.90;;;;;;5045317;28;20202;-86
2023/03/15 07:05:18;;;;;;;75.77;12.87;;;3.20;99.90;;;;;;5063171;28;20502;-86
2023/03/15 07:07:44;;;;;;;76.13;13.43;;;3.30;99.90;;;;;;5062976;28;20168;-85
2023/03/15 07:10:10;;;;;;;76.17;13.63;;;3.20;99.90;;;;;;5061859;28;20913;-84
2023/03/15 07:12:36;;;;;;;74.60;14.38;;;3.30;99.90;;;;;;5061640;28;20234;-84
2023/03/15 07:15:01;;;;;;;76.37;12.53;;;3.30;99.90;;;;;;5062395;28;20156;-85
2023/03/15 07:17:27;;;;;;;72.87;12.10;;;3.40;99.90;;;;;;5062059;28;20167;-85
2023/03/15 07:19:53;;;;;;;76.47;14.37;;;3.50;99.90;;;;;;5044947;28;20632;-85
2023/03/15 07:22:21;;;;;;;74.88;14.35;;;3.40;99.90;;;;;;5061360;28;20208;-84
2023/03/15 07:24:46;;;;;;;74.53;13.80;;;3.50;99.90;;;;;;5043104;28;20168;-84
2023/03/15 07:27:13;;;;;;;74.90;13.80;;;3.50;99.90;;;;;;5061352;28;20230;-85
2023/03/15 07:29:40;;;;;;;76.88;13.88;;;3.50;99.90;;;;;;5060857;28;20178;-84
2023/03/15 07:32:05;;;;;;;78.45;15.93;;;3.50;99.90;;;;;;5043988;28;20219;-85
2023/03/15 07:34:31;;;;;;;77.90;15.60;;;3.60;99.90;;;;;;5044176;28;20211;-85
2023/03/15 07:36:57;;;;;;;77.23;15.83;;;3.60;99.90;;;;;;5061990;28;20422;-85
2023/03/15 07:39:24;;;;;;;79.37;17.20;;;3.50;99.90;;;;;;5061842;28;20770;-85
2023/03/15 07:41:51;;;;;;;78.97;15.82;;;3.60;99.90;;;;;;5061552;28;20161;-85
2023/03/15 07:44:17;;;;;;;82.15;17.08;;;3.60;99.90;;;;;;5061777;28;20171;-85
2023/03/15 07:46:43;;;;;;;84.83;16.00;;;3.60;99.90;;;;;;5061815;28;20169;-85
2023/03/15 07:49:08;;;;;;;79.17;17.07;;;3.70;99.90;;;;;;5061786;28;20438;-84
2023/03/15 07:51:34;;;;;;;79.57;16.23;;;3.80;99.90;;;;;;5061784;28;20171;-84
2023/03/15 07:53:59;;;;;;;82.30;16.10;;;3.80;99.90;;;;;;5043031;28;20192;-84
2023/03/15 07:56:25;;;;;;;84.50;15.43;;;3.80;99.90;;;;;;5061191;28;20542;-85
2023/03/15 07:58:51;;;;;;;77.17;15.67;;;3.90;99.90;;;;;;5043038;28;20255;-84
2023/03/15 08:01:16;;;;;;;78.00;16.10;;;3.90;99.90;;;;;;5061814;28;20164;-85
2023/03/15 08:03:42;;;;;;;78.87;15.50;;;3.90;99.90;;;;;;5043922;28;20192;-85
2023/03/15 08:06:08;;;;;;;81.33;16.60;;;3.90;99.90;;;;;;5043356;28;20169;-85
2023/03/15 08:08:33;;;;;;;83.70;16.57;;;3.90;99.90;;;;;;5060671;28;20438;-84
2023/03/15 08:10:59;;;;;;;79.17;17.03;;;3.90;99.90;;;;;;5061433;28;20165;-85
2023/03/15 08:13:25;;;;;;;86.87;17.30;;;3.80;99.90;;;;;;5061145;28;20193;-85
2023/03/15 08:15:51;;;;;;;84.20;18.50;;;3.80;99.90;;;;;;5061413;28;20180;-85
2023/03/15 08:18:16;;;;;;;80.67;16.77;;;3.70;99.90;;;;;;5060782;28;20616;-84
2023/03/15 08:20:42;;;;;;;81.43;16.63;;;3.80;99.90;;;;;;5061049;28;20418;-85
2023/03/15 08:23:08;;;;;;;81.20;15.70;;;3.70;99.90;;;;;;5042962;28;20680;-86
2023/03/15 08:25:35;;;;;;;81.00;15.50;;;3.60;99.90;;;;;;5060757;28;20191;-85
2023/03/15 08:28:01;;;;;;;83.28;16.75;;;3.70;99.90;;;;;;5060327;28;20415;-85
2023/03/15 08:30:26;;;;;;;80.67;15.17;;;3.70;99.90;;;;;;5060997;28;20161;-85
2023/03/15 08:32:52;;;;;;;81.80;17.30;;;3.80;99.90;;;;;;5061158;28;20267;-85
2023/03/15 08:35:20;;;;;;;81.43;16.93;;;3.80;99.90;;;;;;5060979;28;20160;-85
2023/03/15 08:37:46;;;;;;;87.78;18.15;;;3.70;99.90;;;;;;5061490;28;20248;-86
2023/03/15 08:40:14;;;;;;;81.53;16.70;;;3.70;99.90;;;;;;5060854;28;20268;-86
2023/03/15 08:42:39;;;;;;;83.75;17.55;;;3.70;99.90;;;;;;5061256;28;20256;-86
2023/03/15 08:45:06;;;;;;;82.33;16.20;;;3.70;99.90;;;;;;5060429;28;20212;-86
2023/03/15 08:47:38;;;;;;;79.43;14.70;;;3.80;99.90;;;;;;5043010;28;20165;-86
2023/03/15 08:50:18;;;;;;;83.25;18.20;;;3.80;99.90;;;;;;5042115;28;20160;-85
2023/03/15 08:53:08;;;;;;;82.03;16.23;;;4.00;99.90;;;;;;5042475;28;20199;-86
2023/03/15 08:55:40;;;;;;;81.25;16.90;;;4.10;99.90;;;;;;5060274;28;20635;-85
2023/03/15 08:58:10;;;;;;;86.38;17.95;;;4.10;99.90;;;;;;5042959;28;20283;-86
2023/03/15 09:00:42;;;;;;;91.53;20.10;;;4.20;99.90;;;;;;5059872;28;20604;-85
2023/03/15 09:03:19;;;;;;;85.50;17.63;;;4.20;99.90;;;;;;5060418;28;20199;-85
2023/03/15 09:06:06;;;;;;;81.00;15.80;;;4.20;99.90;;;;;;5041332;28;20179;-85
2023/03/15 09:08:38;;;;;;;79.10;15.82;;;4.30;99.90;;;;;;5059991;28;20176;-86
2023/03/15 09:11:12;;;;;;;81.18;17.67;;;4.40;99.90;;;;;;5060487;28;20145;-86
2023/03/15 09:14:08;;;;;;;;;;;;;;;;;;;;;
2023/03/15 09:16:44;;;;;;;75.93;14.18;;;4.70;99.90;;;;;;5055841;28;20263;-86
2023/03/15 09:19:09;;;;;;;83.22;16.92;;;4.80;99.90;;;;;;5060362;28;20149;-86
2023/03/15 09:21:38;;;;;;;78.70;15.50;;;4.80;99.90;;;;;;5060471;28;20167;-86
2023/03/15 09:24:04;;;;;;;78.85;16.38;;;4.90;99.90;;;;;;5042367;28;20173;-86
2023/03/15 09:26:29;;;;;;;80.13;15.23;;;5.00;99.90;;;;;;5060199;28;20226;-86
2023/03/15 09:28:55;;;;;;;77.37;18.50;;;5.00;99.90;;;;;;5060363;28;20152;-87
2023/03/15 09:31:21;;;;;;;76.47;16.17;;;5.10;99.90;;;;;;5058952;28;20653;-86
2023/03/15 09:34:12;;;;;;;77.60;16.53;;;5.10;99.90;;;;;;5041762;28;20201;-86
2023/03/15 09:37:05;;;;;;;77.13;16.27;;;5.30;99.90;;;;;;5053231;28;20264;-86
2023/03/15 09:39:54;;;;;;;78.70;16.42;;;5.40;99.90;;;;;;5058954;28;20164;-86
2023/03/15 09:42:53;;;;;;;76.68;14.52;;;5.50;99.90;;;;;;5058967;28;20180;-86
2023/03/15 09:46:01;;;;;;;75.53;15.32;;;5.60;99.90;;;;;;5042028;28;20200;-86
2023/03/15 09:48:34;;;;;;;78.18;19.08;;;5.70;99.90;;;;;;5058998;28;20188;-87
2023/03/15 09:51:30;;;;;;;75.97;18.83;;;5.70;99.90;;;;;;5041091;28;20160;-87
2023/03/15 09:54:28;;;;;;;76.95;19.33;;;5.70;99.90;;;;;;5058791;28;20184;-86
2023/03/15 09:57:37;;;;;;;75.90;16.80;;;5.70;99.90;;;;;;5041190;28;20655;-86
2023/03/15 10:00:26;;;;;;;;;;;;;;;;;;;;;
2023/03/15 10:04:16;;;;;;;76.28;15.75;;;5.90;99.90;;;;;;5059113;28;20268;-86
2023/03/15 10:06:54;;;;;;;75.05;14.25;;;5.90;99.90;;;;;;5013795;28;20734;-86
2023/03/15 10:09:42;;;;;;;78.97;17.10;;;6.00;99.90;;;;;;5057809;28;20168;-86
2023/03/15 10:12:56;;;;;;;;;;;;;;;;;;;;;
2023/03/15 10:16:04;;;;;;;74.03;9.50;;;6.70;99.90;;;;;;5048607;28;20267;-85
2023/03/15 10:18:48;;;;;;;70.45;8.68;;;6.90;99.90;;;;;;5034013;28;20180;-85
2023/03/15 10:21:57;;;;;;;70.95;10.45;;;7.00;99.90;;;;;;5055933;28;20149;-85
2023/03/15 10:24:29;;;;;;;71.30;8.68;;;7.00;99.90;;;;;;5037965;28;20180;-85
2023/03/15 10:27:07;;;;;;;69.95;7.25;;;7.00;99.90;;;;;;5037480;28;20686;-86
2023/03/15 10:29:39;;;;;;;71.00;7.35;;;6.80;99.90;;;;;;5038257;28;20699;-85
2023/03/15 10:32:17;;;;;;;70.88;8.25;;;7.10;99.90;;;;;;5056062;28;20180;-85
2023/03/15 10:34:53;;;;;;;70.95;7.72;;;7.30;97.30;;;;;;5055109;28;20566;-85
2023/03/15 10:37:19;;;;;;;70.93;8.55;;;7.30;73.40;;;;;;5038193;28;20639;-86
2023/03/15 10:39:52;;;;;;;72.87;8.13;;;7.30;74.70;;;;;;5037737;28;20168;-85
2023/03/15 10:42:35;;;;;;;71.20;8.77;;;7.40;83.40;;;;;;5056169;28;20418;-85
2023/03/15 10:45:17;;;;;;;67.93;7.43;;;7.30;62.80;;;;;;5038498;28;20168;-85
2023/03/15 10:47:46;;;;;;;72.85;7.47;;;6.80;53.10;;;;;;5055787;28;20152;-85
2023/03/15 10:50:53;;;;;;;71.93;9.25;;;6.60;71.10;;;;;;5055585;28;20513;-84
2023/03/15 10:53:24;;;;;;;70.72;8.15;;;6.70;68.10;;;;;;5016533;28;20207;-85
2023/03/15 10:56:17;;;;;;;70.57;6.05;;;7.10;53.90;;;;;;5055905;28;20191;-85
2023/03/15 10:58:55;;;;;;;71.10;6.10;;;7.40;50.90;;;;;;5037571;28;20165;-84
2023/03/15 11:01:44;;;;;;;;;;;;;;;;;;;;;
2023/03/15 11:04:36;;;;;;;66.10;5.88;;;7.80;30.40;;;;;;5056332;28;20704;-85
2023/03/15 11:07:34;;;;;;;68.70;5.18;;;8.00;19.40;;;;;;5056637;28;20177;-84
2023/03/15 11:10:33;;;;;;;72.13;5.35;;;8.00;18.20;;;;;;4979814;28;20237;-86
2023/03/15 11:13:40;;;;;;;75.60;6.10;;;7.90;17.90;;;;;;4995945;28;20201;-86
2023/03/15 11:16:11;;;;;;;72.88;6.68;;;8.10;24.00;;;;;;4965811;28;20174;-85
2023/03/15 11:18:46;;;;;;;68.75;5.65;;;8.30;15.30;;;;;;4996184;28;20178;-86
2023/03/15 11:21:27;;;;;;;67.97;5.80;;;8.50;16.30;;;;;;5044145;28;20643;-85
2023/03/15 11:23:54;;;;;;;75.65;7.30;;;8.80;1.00;;;;;;5057299;28;20195;-85
2023/03/15 11:26:25;;;;;;;67.45;5.93;;;8.90;1.00;;;;;;5039054;28;20187;-86
2023/03/15 11:29:06;;;;;;;68.05;5.85;;;9.10;1.00;;;;;;5059277;28;20183;-85
2023/03/15 11:31:41;;;;;;;69.97;6.45;;;9.10;1.00;;;;;;5042668;28;20686;-84
2023/03/15 11:34:24;;;;;;;68.90;4.95;;;9.20;1.00;;;;;;5060398;28;20192;-85
2023/03/15 11:36:59;;;;;;;71.28;5.22;;;9.00;1.00;;;;;;5042233;28;20513;-84
2023/03/15 11:39:44;;;;;;;69.30;5.53;;;9.10;1.00;;;;;;5043374;28;20531;-85
2023/03/15 11:42:20;;;;;;;66.80;4.82;;;9.30;1.00;;;;;;5122124;23;20217;-81
2023/03/15 11:44:48;;;;;;;68.60;4.75;;;9.50;1.00;;;;;;5032722;28;20169;-80
2023/03/15 11:47:26;;;;;;;70.32;5.00;;;9.50;1.00;;;;;;5037620;28;20227;-80
2023/03/15 11:49:54;;;;;;;73.13;5.32;;;9.80;1.00;;;;;;5037510;28;20165;-80
2023/03/15 11:52:23;;;;;;;65.38;3.97;;;10.00;1.00;;;;;;5039590;28;20532;-80
2023/03/15 11:54:50;;;;;;;72.97;4.60;;;10.20;1.00;;;;;;5039124;28;20191;-80
2023/03/15 11:57:29;;;;;;;69.30;4.68;;;10.30;1.00;;;;;;5021464;28;20166;-80
2023/03/15 11:59:56;;;;;;;68.20;4.95;;;10.40;1.00;;;;;;5037584;28;20169;-80
2023/03/15 12:02:21;;;;;;;68.20;4.18;;;10.30;1.00;;;;;;5038496;28;20536;-80
2023/03/15 12:04:49;;;;;;;71.00;4.73;;;10.20;1.00;;;;;;5037711;28;20161;-80
2023/03/15 12:07:17;;;;;;;69.82;4.38;;;10.10;1.00;;;;;;5038741;28;20199;-80
2023/03/15 12:09:51;;;;;;;66.28;4.30;;;10.00;1.00;;;;;;5038516;28;20200;-80
2023/03/15 12:12:23;;;;;;;70.63;4.15;;;10.00;1.00;;;;;;5038294;28;20185;-80
2023/03/15 12:15:18;;;;;;;68.97;3.95;;;10.10;1.00;;;;;;5038476;28;20657;-80
2023/03/15 12:17:53;;;;;;;64.45;3.45;;;10.10;1.00;;;;;;5038978;28;20157;-80
2023/03/15 12:20:36;;;;;;;69.00;4.13;;;10.20;1.00;;;;;;5038779;28;20256;-80
2023/03/15 12:23:17;;;;;;;71.20;4.20;;;10.10;1.00;;;;;;5020814;28;20277;-80
2023/03/15 12:25:56;;;;;;;68.10;4.35;;;10.20;1.00;;;;;;5038481;28;20555;-80
2023/03/15 12:28:37;;;;;;;68.20;4.15;;;10.40;1.00;;;;;;5038398;28;20512;-80
2023/03/15 12:31:06;;;;;;;74.25;4.47;;;10.70;1.00;;;;;;5021630;28;20612;-80
2023/03/15 12:33:44;;;;;;;71.40;4.65;;;10.80;1.00;;;;;;5037918;28;20193;-80
2023/03/15 12:36:39;;;;;;;67.93;4.20;;;10.60;1.00;;;;;;5036701;28;20165;-80
2023/03/15 12:39:14;;;;;;;68.13;4.53;;;10.70;1.00;;;;;;5038267;28;20509;-80
2023/03/15 12:41:41;;;;;;;72.93;4.60;;;10.90;1.00;;;;;;5037438;28;20180;-80
2023/03/15 12:44:21;;;;;;;70.25;4.28;;;10.90;1.00;;;;;;5036998;28;20169;-80
2023/03/15 12:46:47;;;;;;;67.68;4.38;;;11.00;1.00;;;;;;5036701;28;20169;-80
2023/03/15 12:49:21;;;;;;;68.23;4.20;;;10.80;1.00;;;;;;5038283;28;20176;-80
2023/03/15 12:51:54;;;;;;;67.63;4.25;;;10.60;1.00;;;;;;5036699;28;20173;-80
2023/03/15 12:54:23;;;;;;;67.72;3.83;;;10.30;1.00;;;;;;5037425;28;20272;-80
2023/03/15 12:56:58;;;;;;;67.53;4.95;;;9.90;1.00;;;;;;5037447;28;20165;-80
2023/03/15 12:59:54;;;;;;;66.30;3.70;;;10.10;1.00;;;;;;5037883;28;20165;-80
2023/03/15 13:02:52;;;;;;;69.75;4.38;;;10.20;1.00;;;;;;5037544;28;20189;-80
2023/03/15 13:08:22;;;;;;;66.88;4.20;;;10.80;1.00;;;;;;5037846;28;20196;-80
2023/03/15 13:10:56;;;;;;;66.65;3.70;;;10.60;1.00;;;;;;5036892;28;20228;-80
2023/03/15 13:13:54;;;;;;;67.32;4.30;;;10.90;1.00;;;;;;5036823;28;20188;-80
2023/03/15 13:16:43;;;;;;;68.70;4.72;;;10.90;1.00;;;;;;5037311;28;20150;-80
2023/03/15 13:19:31;;;;;;;70.85;4.15;;;10.70;1.00;;;;;;5007850;28;20184;-80
2023/03/15 13:22:18;;;;;;;66.75;4.03;;;10.80;1.00;;;;;;5036640;28;20188;-79
2023/03/15 13:25:18;;;;;;;64.15;3.67;;;10.90;1.00;;;;;;5037179;28;20236;-80
2023/03/15 13:28:18;;;;;;;68.28;3.88;;;10.70;1.00;;;;;;5019281;28;20648;-79
2023/03/15 13:31:26;;;;;;;69.30;4.35;;;10.70;1.00;;;;;;5019854;28;20162;-80
2023/03/15 13:34:02;;;;;;;69.45;4.60;;;10.80;1.00;;;;;;5036748;28;20197;-80
2023/03/15 13:36:38;;;;;;;68.43;4.40;;;10.70;1.00;;;;;;5037149;28;20153;-80